sensor_id;sensor_type;location;lat;lon;timestamp;pressure;altitude;pressure_sealevel;temperature;humidity
56737;BME280;42618;51.226;4.910;2022-07-09T00:01:01;49511.72;;;-146.94;70.02
56737;BME280;42618;51.226;4.910;2022-07-09T00:03:28;49471.84;;;-146.94;69.79
56737;BME280;42618;51.226;4.910;2022-07-09T00:05:55;49479.81;;;-146.94;69.87
56737;BME280;42618;51.226;4.910;2022-07-09T00:08:22;49463.88;;;-146.94;69.02
56737;BME280;42618;51.226;4.910;2022-07-09T00:10:49;49475.81;;;-146.94;69.02
56737;BME280;42618;51.226;4.910;2022-07-09T00:13:15;49493.75;;;-146.94;68.97
56737;BME280;42618;51.226;4.910;2022-07-09T00:15:42;49521.69;;;-146.94;68.68
56737;BME280;42618;51.226;4.910;2022-07-09T00:18:09;49449.91;;;-146.94;68.91
56737;BME280;42618;51.226;4.910;2022-07-09T00:20:36;49503.72;;;-146.94;69.03
56737;BME280;42618;51.226;4.910;2022-07-09T00:23:03;49493.75;;;-146.94;70.82
56737;BME280;42618;51.226;4.910;2022-07-09T00:25:30;49499.75;;;-146.94;71.09
56737;BME280;42618;51.226;4.910;2022-07-09T00:27:56;49483.81;;;-146.94;71.32
56737;BME280;42618;51.226;4.910;2022-07-09T00:30:23;49495.75;;;-146.94;72.17
56737;BME280;42618;51.226;4.910;2022-07-09T00:32:50;49483.81;;;-146.94;71.99
56737;BME280;42618;51.226;4.910;2022-07-09T00:35:16;49459.88;;;-146.94;72.11
56737;BME280;42618;51.226;4.910;2022-07-09T00:37:43;49537.63;;;-146.94;72.27
56737;BME280;42618;51.226;4.910;2022-07-09T00:40:10;49459.88;;;-146.94;73.60
56737;BME280;42618;51.226;4.910;2022-07-09T00:42:37;49503.72;;;-146.94;74.02
56737;BME280;42618;51.226;4.910;2022-07-09T00:45:04;49519.69;;;-146.94;74.27
56737;BME280;42618;51.226;4.910;2022-07-09T00:47:31;49475.81;;;-146.94;74.89
56737;BME280;42618;51.226;4.910;2022-07-09T00:49:58;49483.81;;;-146.94;74.72
56737;BME280;42618;51.226;4.910;2022-07-09T00:52:25;49501.75;;;-146.94;75.54
56737;BME280;42618;51.226;4.910;2022-07-09T00:54:52;49469.84;;;-146.94;75.64
56737;BME280;42618;51.226;4.910;2022-07-09T00:57:21;49445.94;;;-146.94;75.78
56737;BME280;42618;51.226;4.910;2022-07-09T00:59:48;49487.78;;;-146.94;75.40
56737;BME280;42618;51.226;4.910;2022-07-09T01:02:16;49531.63;;;-146.94;76.01
56737;BME280;42618;51.226;4.910;2022-07-09T01:04:45;49515.69;;;-146.94;75.70
56737;BME280;42618;51.226;4.910;2022-07-09T01:07:12;49523.66;;;-146.94;75.58
56737;BME280;42618;51.226;4.910;2022-07-09T01:09:39;49483.81;;;-146.94;75.39
56737;BME280;42618;51.226;4.910;2022-07-09T01:12:07;49527.66;;;-146.94;76.24
56737;BME280;42618;51.226;4.910;2022-07-09T01:14:34;49439.94;;;-146.94;77.25
56737;BME280;42618;51.226;4.910;2022-07-09T01:17:02;49503.72;;;-146.94;77.27
56737;BME280;42618;51.226;4.910;2022-07-09T01:19:31;49531.63;;;-146.94;77.79
56737;BME280;42618;51.226;4.910;2022-07-09T01:21:58;49509.72;;;-146.94;78.22
56737;BME280;42618;51.226;4.910;2022-07-09T01:24:31;49515.69;;;-146.94;78.34
56737;BME280;42618;51.226;4.910;2022-07-09T01:26:58;49475.81;;;-146.94;77.93
56737;BME280;42618;51.226;4.910;2022-07-09T01:29:25;49491.78;;;-146.94;78.07
56737;BME280;42618;51.226;4.910;2022-07-09T01:31:52;49503.72;;;-146.94;78.10
56737;BME280;42618;51.226;4.910;2022-07-09T01:34:19;49487.78;;;-146.94;78.29
56737;BME280;42618;51.226;4.910;2022-07-09T01:36:46;49513.69;;;-146.94;77.98
56737;BME280;42618;51.226;4.910;2022-07-09T01:39:12;49521.69;;;-146.94;77.35
56737;BME280;42618;51.226;4.910;2022-07-09T01:41:39;49527.66;;;-146.94;78.10
56737;BME280;42618;51.226;4.910;2022-07-09T01:44:06;49491.78;;;-146.94;78.85
56737;BME280;42618;51.226;4.910;2022-07-09T01:46:34;49553.56;;;-146.94;78.57
56737;BME280;42618;51.226;4.910;2022-07-09T01:49:02;49513.69;;;-146.94;78.85
56737;BME280;42618;51.226;4.910;2022-07-09T01:51:28;49507.72;;;-146.94;79.13
56737;BME280;42618;51.226;4.910;2022-07-09T01:53:55;49507.72;;;-146.94;79.00
56737;BME280;42618;51.226;4.910;2022-07-09T01:56:23;49491.78;;;-146.94;79.13
56737;BME280;42618;51.226;4.910;2022-07-09T01:58:49;49533.63;;;-146.94;79.16
56737;BME280;42618;51.226;4.910;2022-07-09T02:01:16;49535.63;;;-146.94;79.41
56737;BME280;42618;51.226;4.910;2022-07-09T02:03:43;49515.69;;;-146.94;79.58
56737;BME280;42618;51.226;4.910;2022-07-09T02:06:10;49545.59;;;-146.94;79.75
56737;BME280;42618;51.226;4.910;2022-07-09T02:08:37;49517.69;;;-146.94;80.05
56737;BME280;42618;51.226;4.910;2022-07-09T02:11:06;49513.69;;;-146.94;80.01
56737;BME280;42618;51.226;4.910;2022-07-09T02:13:33;49471.84;;;-146.94;80.82
56737;BME280;42618;51.226;4.910;2022-07-09T02:16:00;49555.56;;;-146.94;80.99
56737;BME280;42618;51.226;4.910;2022-07-09T02:18:28;49513.69;;;-146.94;81.11
56737;BME280;42618;51.226;4.910;2022-07-09T02:20:55;49515.69;;;-146.94;80.74
56737;BME280;42618;51.226;4.910;2022-07-09T02:23:22;49495.75;;;-146.94;80.97
56737;BME280;42618;51.226;4.910;2022-07-09T02:25:50;49537.63;;;-146.94;81.46
56737;BME280;42618;51.226;4.910;2022-07-09T02:28:17;49511.72;;;-146.94;80.70
56737;BME280;42618;51.226;4.910;2022-07-09T02:30:44;49549.59;;;-146.94;80.01
56737;BME280;42618;51.226;4.910;2022-07-09T02:33:11;49493.75;;;-146.94;80.47
56737;BME280;42618;51.226;4.910;2022-07-09T02:35:38;49531.63;;;-146.94;80.93
56737;BME280;42618;51.226;4.910;2022-07-09T02:38:04;49523.66;;;-146.94;81.08
56737;BME280;42618;51.226;4.910;2022-07-09T02:40:31;49503.72;;;-146.94;81.30
56737;BME280;42618;51.226;4.910;2022-07-09T02:42:58;49531.63;;;-146.94;81.08
56737;BME280;42618;51.226;4.910;2022-07-09T02:45:24;49487.78;;;-146.94;81.63
56737;BME280;42618;51.226;4.910;2022-07-09T02:47:51;49513.69;;;-146.94;82.97
56737;BME280;42618;51.226;4.910;2022-07-09T02:50:18;49511.72;;;-146.94;82.77
56737;BME280;42618;51.226;4.910;2022-07-09T02:52:45;49533.63;;;-146.94;84.48
56737;BME280;42618;51.226;4.910;2022-07-09T02:55:11;49557.56;;;-146.94;84.75
56737;BME280;42618;51.226;4.910;2022-07-09T02:57:38;49539.63;;;-146.94;84.10
56737;BME280;42618;51.226;4.910;2022-07-09T03:00:05;49519.69;;;-146.94;83.54
56737;BME280;42618;51.226;4.910;2022-07-09T03:02:32;49527.66;;;-146.94;84.33
56737;BME280;42618;51.226;4.910;2022-07-09T03:04:59;49551.56;;;-146.94;83.85
56737;BME280;42618;51.226;4.910;2022-07-09T03:07:26;49539.63;;;-146.94;83.60
56737;BME280;42618;51.226;4.910;2022-07-09T03:09:53;49515.69;;;-146.94;84.53
56737;BME280;42618;51.226;4.910;2022-07-09T03:12:19;49543.59;;;-146.94;84.07
56737;BME280;42618;51.226;4.910;2022-07-09T03:14:46;49505.72;;;-146.94;83.67
56737;BME280;42618;51.226;4.910;2022-07-09T03:17:13;49519.69;;;-146.94;83.22
56737;BME280;42618;51.226;4.910;2022-07-09T03:19:39;49541.59;;;-146.94;82.30
56737;BME280;42618;51.226;4.910;2022-07-09T03:22:06;49521.69;;;-146.94;82.37
56737;BME280;42618;51.226;4.910;2022-07-09T03:24:33;49499.75;;;-146.94;81.86
56737;BME280;42618;51.226;4.910;2022-07-09T03:26:59;49531.63;;;-146.94;81.99
56737;BME280;42618;51.226;4.910;2022-07-09T03:29:26;49537.63;;;-146.94;82.08
56737;BME280;42618;51.226;4.910;2022-07-09T03:31:53;49523.66;;;-146.94;82.41
56737;BME280;42618;51.226;4.910;2022-07-09T03:34:19;49565.53;;;-146.94;83.29
56737;BME280;42618;51.226;4.910;2022-07-09T03:36:46;49549.59;;;-146.94;83.45
56737;BME280;42618;51.226;4.910;2022-07-09T03:39:13;49547.59;;;-146.94;84.07
56737;BME280;42618;51.226;4.910;2022-07-09T03:41:40;49551.56;;;-146.94;84.78
56737;BME280;42618;51.226;4.910;2022-07-09T03:44:07;49519.69;;;-146.94;84.68
56737;BME280;42618;51.226;4.910;2022-07-09T03:46:34;49551.56;;;-146.94;84.25
56737;BME280;42618;51.226;4.910;2022-07-09T03:49:01;49519.69;;;-146.94;84.43
56737;BME280;42618;51.226;4.910;2022-07-09T03:51:27;49497.75;;;-146.94;84.30
56737;BME280;42618;51.226;4.910;2022-07-09T03:53:54;49511.72;;;-146.94;83.35
56737;BME280;42618;51.226;4.910;2022-07-09T03:56:21;49511.72;;;-146.94;83.55
56737;BME280;42618;51.226;4.910;2022-07-09T03:58:48;49519.69;;;-146.94;83.58
56737;BME280;42618;51.226;4.910;2022-07-09T04:01:15;49539.63;;;-146.94;83.88
56737;BME280;42618;51.226;4.910;2022-07-09T04:03:42;49543.59;;;-146.94;83.70
56737;BME280;42618;51.226;4.910;2022-07-09T04:06:08;49491.78;;;-146.94;85.59
56737;BME280;42618;51.226;4.910;2022-07-09T04:08:35;49553.56;;;-146.94;86.06
56737;BME280;42618;51.226;4.910;2022-07-09T04:11:03;49533.63;;;-146.94;86.89
56737;BME280;42618;51.226;4.910;2022-07-09T04:13:30;49521.69;;;-146.94;88.15
56737;BME280;42618;51.226;4.910;2022-07-09T04:15:56;49541.59;;;-146.94;90.20
56737;BME280;42618;51.226;4.910;2022-07-09T04:18:23;49543.59;;;-146.94;90.14
56737;BME280;42618;51.226;4.910;2022-07-09T04:20:50;49509.72;;;-146.94;90.32
56737;BME280;42618;51.226;4.910;2022-07-09T04:23:17;49519.69;;;-146.94;91.41
56737;BME280;42618;51.226;4.910;2022-07-09T04:25:44;49543.59;;;-146.94;91.45
56737;BME280;42618;51.226;4.910;2022-07-09T04:28:11;49571.50;;;-146.94;91.44
56737;BME280;42618;51.226;4.910;2022-07-09T04:30:38;49507.72;;;-146.94;91.32
56737;BME280;42618;51.226;4.910;2022-07-09T04:33:05;49529.66;;;-146.94;90.89
56737;BME280;42618;51.226;4.910;2022-07-09T04:35:32;49503.72;;;-146.94;90.80
56737;BME280;42618;51.226;4.910;2022-07-09T04:37:59;49563.53;;;-146.94;90.68
56737;BME280;42618;51.226;4.910;2022-07-09T04:40:26;49515.69;;;-146.94;91.50
56737;BME280;42618;51.226;4.910;2022-07-09T04:42:52;49527.66;;;-146.94;91.35
56737;BME280;42618;51.226;4.910;2022-07-09T04:45:19;49505.72;;;-146.94;91.98
56737;BME280;42618;51.226;4.910;2022-07-09T04:47:46;49529.66;;;-146.94;92.11
56737;BME280;42618;51.226;4.910;2022-07-09T04:50:13;49559.56;;;-146.94;92.10
56737;BME280;42618;51.226;4.910;2022-07-09T04:52:40;49535.63;;;-146.94;92.67
56737;BME280;42618;51.226;4.910;2022-07-09T04:55:07;49527.66;;;-146.94;92.54
56737;BME280;42618;51.226;4.910;2022-07-09T04:57:34;49545.59;;;-146.94;92.23
56737;BME280;42618;51.226;4.910;2022-07-09T05:00:02;49523.66;;;-146.94;92.49
56737;BME280;42618;51.226;4.910;2022-07-09T05:02:29;49553.56;;;-146.94;92.78
56737;BME280;42618;51.226;4.910;2022-07-09T05:04:56;49547.59;;;-146.94;93.03
56737;BME280;42618;51.226;4.910;2022-07-09T05:07:22;49547.59;;;-146.94;92.86
56737;BME280;42618;51.226;4.910;2022-07-09T05:09:49;49587.47;;;-146.94;92.47
56737;BME280;42618;51.226;4.910;2022-07-09T05:12:16;49479.81;;;-146.94;92.48
56737;BME280;42618;51.226;4.910;2022-07-09T05:14:42;49551.56;;;-146.94;92.00
56737;BME280;42618;51.226;4.910;2022-07-09T05:17:09;49543.59;;;-146.94;91.60
56737;BME280;42618;51.226;4.910;2022-07-09T05:19:36;49507.72;;;-146.94;91.56
56737;BME280;42618;51.226;4.910;2022-07-09T05:22:03;49531.63;;;-146.94;91.90
56737;BME280;42618;51.226;4.910;2022-07-09T05:24:30;49559.56;;;-146.94;91.80
56737;BME280;42618;51.226;4.910;2022-07-09T05:26:56;49487.78;;;-146.94;91.40
56737;BME280;42618;51.226;4.910;2022-07-09T05:29:23;49527.66;;;-146.94;91.17
56737;BME280;42618;51.226;4.910;2022-07-09T05:31:50;49525.66;;;-146.94;90.39
56737;BME280;42618;51.226;4.910;2022-07-09T05:34:17;49513.69;;;-146.94;90.26
56737;BME280;42618;51.226;4.910;2022-07-09T05:36:44;49521.69;;;-146.94;89.90
56737;BME280;42618;51.226;4.910;2022-07-09T05:39:10;49525.66;;;-146.94;89.68
56737;BME280;42618;51.226;4.910;2022-07-09T05:41:37;49557.56;;;-146.94;89.14
56737;BME280;42618;51.226;4.910;2022-07-09T05:44:04;49559.56;;;-146.94;88.77
56737;BME280;42618;51.226;4.910;2022-07-09T05:46:31;49515.69;;;-146.94;88.51
56737;BME280;42618;51.226;4.910;2022-07-09T05:48:57;49535.63;;;-146.94;88.06
56737;BME280;42618;51.226;4.910;2022-07-09T05:51:24;49533.63;;;-146.94;88.56
56737;BME280;42618;51.226;4.910;2022-07-09T05:53:51;49527.66;;;-146.94;88.09
56737;BME280;42618;51.226;4.910;2022-07-09T05:56:17;49511.72;;;-146.94;87.92
56737;BME280;42618;51.226;4.910;2022-07-09T05:58:44;49519.69;;;-146.94;88.10
56737;BME280;42618;51.226;4.910;2022-07-09T06:01:11;49551.56;;;-146.94;87.77
56737;BME280;42618;51.226;4.910;2022-07-09T06:03:40;49531.63;;;-146.94;87.54
56737;BME280;42618;51.226;4.910;2022-07-09T06:06:07;49517.69;;;-146.94;86.85
56737;BME280;42618;51.226;4.910;2022-07-09T06:08:33;49535.63;;;-146.94;86.42
56737;BME280;42618;51.226;4.910;2022-07-09T06:11:01;49527.66;;;-146.94;86.39
56737;BME280;42618;51.226;4.910;2022-07-09T06:13:28;49531.63;;;-146.94;86.13
56737;BME280;42618;51.226;4.910;2022-07-09T06:15:55;49547.59;;;-146.94;86.03
56737;BME280;42618;51.226;4.910;2022-07-09T06:18:22;49531.63;;;-146.94;86.24
56737;BME280;42618;51.226;4.910;2022-07-09T06:20:49;49519.69;;;-146.94;86.32
56737;BME280;42618;51.226;4.910;2022-07-09T06:23:15;49519.69;;;-146.94;85.51
56737;BME280;42618;51.226;4.910;2022-07-09T06:25:42;49517.69;;;-146.94;85.94
56737;BME280;42618;51.226;4.910;2022-07-09T06:28:09;49533.63;;;-146.94;85.71
56737;BME280;42618;51.226;4.910;2022-07-09T06:30:36;49481.81;;;-146.94;85.40
56737;BME280;42618;51.226;4.910;2022-07-09T06:33:03;49475.81;;;-146.94;84.43
56737;BME280;42618;51.226;4.910;2022-07-09T06:35:30;49503.72;;;-146.94;84.17
56737;BME280;42618;51.226;4.910;2022-07-09T06:37:58;49501.75;;;-146.94;83.71
56737;BME280;42618;51.226;4.910;2022-07-09T06:40:24;49523.66;;;-146.94;83.63
56737;BME280;42618;51.226;4.910;2022-07-09T06:42:51;49465.84;;;-146.94;82.55
56737;BME280;42618;51.226;4.910;2022-07-09T06:45:30;49475.81;;;-146.94;82.54
56737;BME280;42618;51.226;4.910;2022-07-09T06:47:57;49515.69;;;-146.94;82.06
56737;BME280;42618;51.226;4.910;2022-07-09T06:50:23;49469.84;;;-146.94;81.30
56737;BME280;42618;51.226;4.910;2022-07-09T06:52:50;49481.81;;;-146.94;80.45
56737;BME280;42618;51.226;4.910;2022-07-09T06:55:17;49487.78;;;-146.94;79.81
56737;BME280;42618;51.226;4.910;2022-07-09T06:57:43;49499.75;;;-146.94;78.91
56737;BME280;42618;51.226;4.910;2022-07-09T07:00:10;49519.69;;;-146.94;79.05
56737;BME280;42618;51.226;4.910;2022-07-09T07:02:37;49483.81;;;-146.94;77.99
56737;BME280;42618;51.226;4.910;2022-07-09T07:05:04;49519.69;;;-146.94;77.53
56737;BME280;42618;51.226;4.910;2022-07-09T07:07:31;49477.81;;;-146.94;76.26
56737;BME280;42618;51.226;4.910;2022-07-09T07:09:58;49507.72;;;-146.94;75.82
56737;BME280;42618;51.226;4.910;2022-07-09T07:12:24;49495.75;;;-146.94;75.42
56737;BME280;42618;51.226;4.910;2022-07-09T07:14:51;49487.78;;;-146.94;75.88
56737;BME280;42618;51.226;4.910;2022-07-09T07:17:18;49495.75;;;-146.94;75.84
56737;BME280;42618;51.226;4.910;2022-07-09T07:19:45;49481.81;;;-146.94;75.38
56737;BME280;42618;51.226;4.910;2022-07-09T07:22:11;49485.78;;;-146.94;75.05
56737;BME280;42618;51.226;4.910;2022-07-09T07:24:38;49471.84;;;-146.94;74.31
56737;BME280;42618;51.226;4.910;2022-07-09T07:27:05;49451.91;;;-146.94;73.51
56737;BME280;42618;51.226;4.910;2022-07-09T07:29:32;49439.94;;;-146.94;72.94
56737;BME280;42618;51.226;4.910;2022-07-09T07:31:59;49517.69;;;-146.94;72.72
56737;BME280;42618;51.226;4.910;2022-07-09T07:34:26;49479.81;;;-146.94;72.41
56737;BME280;42618;51.226;4.910;2022-07-09T07:36:53;49463.88;;;-146.94;72.82
56737;BME280;42618;51.226;4.910;2022-07-09T07:39:20;49471.84;;;-146.94;73.15
56737;BME280;42618;51.226;4.910;2022-07-09T07:41:51;49455.88;;;-146.94;71.93
56737;BME280;42618;51.226;4.910;2022-07-09T07:44:18;49477.81;;;-146.94;71.70
56737;BME280;42618;51.226;4.910;2022-07-09T07:46:45;49483.81;;;-146.94;70.89
56737;BME280;42618;51.226;4.910;2022-07-09T07:49:12;49473.84;;;-146.94;69.64
56737;BME280;42618;51.226;4.910;2022-07-09T07:51:38;49487.78;;;-146.94;69.58
56737;BME280;42618;51.226;4.910;2022-07-09T07:54:05;49483.81;;;-146.94;68.66
56737;BME280;42618;51.226;4.910;2022-07-09T07:56:32;49471.84;;;-146.94;67.59
56737;BME280;42618;51.226;4.910;2022-07-09T07:59:00;49435.97;;;-146.94;66.78
56737;BME280;42618;51.226;4.910;2022-07-09T08:01:26;49499.75;;;-146.94;66.73
56737;BME280;42618;51.226;4.910;2022-07-09T08:03:53;49467.84;;;-146.94;67.00
56737;BME280;42618;51.226;4.910;2022-07-09T08:06:20;49427.97;;;-146.94;66.93
56737;BME280;42618;51.226;4.910;2022-07-09T08:08:48;49491.78;;;-146.94;66.55
56737;BME280;42618;51.226;4.910;2022-07-09T08:11:15;49485.78;;;-146.94;66.97
56737;BME280;42618;51.226;4.910;2022-07-09T08:13:42;49473.84;;;-146.94;67.51
56737;BME280;42618;51.226;4.910;2022-07-09T08:16:08;49481.81;;;-146.94;67.21
56737;BME280;42618;51.226;4.910;2022-07-09T08:18:35;49451.91;;;-146.94;66.41
56737;BME280;42618;51.226;4.910;2022-07-09T08:21:03;49463.88;;;-146.94;66.15
56737;BME280;42618;51.226;4.910;2022-07-09T08:23:30;49455.88;;;-146.94;66.56
56737;BME280;42618;51.226;4.910;2022-07-09T08:26:00;49491.78;;;-146.94;66.69
56737;BME280;42618;51.226;4.910;2022-07-09T08:28:26;49424.00;;;-146.94;66.84
56737;BME280;42618;51.226;4.910;2022-07-09T08:30:53;49467.84;;;-146.94;66.38
56737;BME280;42618;51.226;4.910;2022-07-09T08:33:20;49445.94;;;-146.94;65.23
56737;BME280;42618;51.226;4.910;2022-07-09T08:35:47;49441.94;;;-146.94;64.70
56737;BME280;42618;51.226;4.910;2022-07-09T08:38:13;49414.03;;;-146.94;64.66
56737;BME280;42618;51.226;4.910;2022-07-09T08:40:40;49422.00;;;-146.94;63.25
56737;BME280;42618;51.226;4.910;2022-07-09T08:43:09;49435.97;;;-146.94;62.41
56737;BME280;42618;51.226;4.910;2022-07-09T08:45:36;49449.91;;;-146.94;62.83
56737;BME280;42618;51.226;4.910;2022-07-09T08:48:04;49433.97;;;-146.94;63.01
56737;BME280;42618;51.226;4.910;2022-07-09T08:50:33;49471.84;;;-146.94;64.46
56737;BME280;42618;51.226;4.910;2022-07-09T08:53:02;49445.94;;;-146.94;65.41
56737;BME280;42618;51.226;4.910;2022-07-09T08:55:29;49420.00;;;-146.94;65.13
56737;BME280;42618;51.226;4.910;2022-07-09T08:57:56;49467.84;;;-146.94;65.68
56737;BME280;42618;51.226;4.910;2022-07-09T09:00:23;49455.88;;;-146.94;64.24
56737;BME280;42618;51.226;4.910;2022-07-09T09:02:50;49420.00;;;-146.94;63.66
56737;BME280;42618;51.226;4.910;2022-07-09T09:05:17;49451.91;;;-146.94;63.03
56737;BME280;42618;51.226;4.910;2022-07-09T09:07:44;49410.03;;;-146.94;61.63
56737;BME280;42618;51.226;4.910;2022-07-09T09:10:24;49414.03;;;-146.94;61.10
56737;BME280;42618;51.226;4.910;2022-07-09T09:12:58;49447.91;;;-146.94;60.93
56737;BME280;42618;51.226;4.910;2022-07-09T09:15:26;49445.94;;;-146.94;61.08
56737;BME280;42618;51.226;4.910;2022-07-09T09:17:53;49402.06;;;-146.94;60.25
56737;BME280;42618;51.226;4.910;2022-07-09T09:20:21;49416.03;;;-146.94;59.95
56737;BME280;42618;51.226;4.910;2022-07-09T09:22:53;49433.97;;;-146.94;60.33
56737;BME280;42618;51.226;4.910;2022-07-09T09:25:21;49416.03;;;-146.94;61.17
56737;BME280;42618;51.226;4.910;2022-07-09T09:27:55;49412.03;;;-146.94;61.65
56737;BME280;42618;51.226;4.910;2022-07-09T09:30:23;49427.97;;;-146.94;62.27
56737;BME280;42618;51.226;4.910;2022-07-09T09:32:56;49390.09;;;-146.94;61.15
56737;BME280;42618;51.226;4.910;2022-07-09T09:35:29;49453.91;;;-146.94;61.49
56737;BME280;42618;51.226;4.910;2022-07-09T09:37:56;49404.06;;;-146.94;61.92
56737;BME280;42618;51.226;4.910;2022-07-09T09:40:23;49455.88;;;-146.94;60.41
56737;BME280;42618;51.226;4.910;2022-07-09T09:42:50;49418.00;;;-146.94;61.18
56737;BME280;42618;51.226;4.910;2022-07-09T09:45:22;49439.94;;;-146.94;62.01
56737;BME280;42618;51.226;4.910;2022-07-09T09:47:50;49426.00;;;-146.94;61.60
56737;BME280;42618;51.226;4.910;2022-07-09T09:50:19;49426.00;;;-146.94;61.44
56737;BME280;42618;51.226;4.910;2022-07-09T09:52:47;49435.97;;;-146.94;60.75
56737;BME280;42618;51.226;4.910;2022-07-09T09:55:15;49457.88;;;-146.94;61.54
56737;BME280;42618;51.226;4.910;2022-07-09T09:57:42;49422.00;;;-146.94;62.63
56737;BME280;42618;51.226;4.910;2022-07-09T10:00:11;49435.97;;;-146.94;63.15
56737;BME280;42618;51.226;4.910;2022-07-09T10:02:43;49427.97;;;-146.94;63.93
56737;BME280;42618;51.226;4.910;2022-07-09T10:05:10;49437.94;;;-146.94;63.32
56737;BME280;42618;51.226;4.910;2022-07-09T10:07:39;49441.94;;;-146.94;62.60
56737;BME280;42618;51.226;4.910;2022-07-09T10:10:07;49427.97;;;-146.94;61.45
56737;BME280;42618;51.226;4.910;2022-07-09T10:12:40;49422.00;;;-146.94;59.71
56737;BME280;42618;51.226;4.910;2022-07-09T10:15:23;49422.00;;;-146.94;60.13
56737;BME280;42618;51.226;4.910;2022-07-09T10:17:51;49424.00;;;-146.94;58.73
56737;BME280;42618;51.226;4.910;2022-07-09T10:20:31;49386.13;;;-146.94;58.93
56737;BME280;42618;51.226;4.910;2022-07-09T10:23:00;49396.09;;;-146.94;58.85
56737;BME280;42618;51.226;4.910;2022-07-09T10:25:29;49439.94;;;-146.94;59.85
56737;BME280;42618;51.226;4.910;2022-07-09T10:27:56;49404.06;;;-146.94;60.20
56737;BME280;42618;51.226;4.910;2022-07-09T10:30:33;49394.09;;;-146.94;60.11
56737;BME280;42618;51.226;4.910;2022-07-09T10:33:27;49431.97;;;-146.94;59.66
56737;BME280;42618;51.226;4.910;2022-07-09T10:36:09;49431.97;;;-146.94;60.00
56737;BME280;42618;51.226;4.910;2022-07-09T10:38:37;49418.00;;;-146.94;60.08
56737;BME280;42618;51.226;4.910;2022-07-09T10:41:05;49390.09;;;-146.94;58.92
56737;BME280;42618;51.226;4.910;2022-07-09T10:43:39;49426.00;;;-146.94;59.25
56737;BME280;42618;51.226;4.910;2022-07-09T10:46:11;49404.06;;;-146.94;60.00
56737;BME280;42618;51.226;4.910;2022-07-09T10:48:39;49433.97;;;-146.94;60.03
56737;BME280;42618;51.226;4.910;2022-07-09T10:51:06;49376.16;;;-146.94;59.57
56737;BME280;42618;51.226;4.910;2022-07-09T10:53:33;49424.00;;;-146.94;58.84
56737;BME280;42618;51.226;4.910;2022-07-09T10:55:59;49406.06;;;-146.94;57.19
56737;BME280;42618;51.226;4.910;2022-07-09T10:58:26;49388.13;;;-146.94;57.31
56737;BME280;42618;51.226;4.910;2022-07-09T11:01:01;49404.06;;;-146.94;55.56
56737;BME280;42618;51.226;4.910;2022-07-09T11:03:31;49435.97;;;-146.94;55.40
56737;BME280;42618;51.226;4.910;2022-07-09T11:05:58;49408.06;;;-146.94;56.82
56737;BME280;42618;51.226;4.910;2022-07-09T11:08:25;49408.06;;;-146.94;56.53
56737;BME280;42618;51.226;4.910;2022-07-09T11:10:52;49418.00;;;-146.94;56.46
56737;BME280;42618;51.226;4.910;2022-07-09T11:13:23;49394.09;;;-146.94;55.67
56737;BME280;42618;51.226;4.910;2022-07-09T11:15:58;49398.09;;;-146.94;53.86
56737;BME280;42618;51.226;4.910;2022-07-09T11:18:26;49376.16;;;-146.94;52.53
56737;BME280;42618;51.226;4.910;2022-07-09T11:20:54;49394.09;;;-146.94;51.12
56737;BME280;42618;51.226;4.910;2022-07-09T11:23:20;49382.13;;;-146.94;50.52
56737;BME280;42618;51.226;4.910;2022-07-09T11:25:47;49392.09;;;-146.94;50.23
56737;BME280;42618;51.226;4.910;2022-07-09T11:28:22;49384.13;;;-146.94;51.25
56737;BME280;42618;51.226;4.910;2022-07-09T11:31:02;49364.19;;;-146.94;48.16
56737;BME280;42618;51.226;4.910;2022-07-09T11:33:30;49368.19;;;-146.94;49.52
56737;BME280;42618;51.226;4.910;2022-07-09T11:36:19;49344.25;;;-146.94;48.18
56737;BME280;42618;51.226;4.910;2022-07-09T11:38:50;49386.13;;;-146.94;48.48
56737;BME280;42618;51.226;4.910;2022-07-09T11:41:17;49398.09;;;-146.94;48.83
56737;BME280;42618;51.226;4.910;2022-07-09T11:43:51;49392.09;;;-146.94;45.92
56737;BME280;42618;51.226;4.910;2022-07-09T11:46:19;49376.16;;;-146.94;44.65
56737;BME280;42618;51.226;4.910;2022-07-09T11:48:53;49352.22;;;-146.94;44.47
56737;BME280;42618;51.226;4.910;2022-07-09T11:51:46;49332.31;;;-146.94;44.94
56737;BME280;42618;51.226;4.910;2022-07-09T11:54:13;49328.31;;;-146.94;44.05
56737;BME280;42618;51.226;4.910;2022-07-09T11:56:42;49332.31;;;-146.94;43.99
56737;BME280;42618;51.226;4.910;2022-07-09T11:59:12;49350.25;;;-146.94;43.08
56737;BME280;42618;51.226;4.910;2022-07-09T12:01:38;49308.38;;;-146.94;42.40
56737;BME280;42618;51.226;4.910;2022-07-09T12:04:05;49348.25;;;-146.94;42.91
56737;BME280;42618;51.226;4.910;2022-07-09T12:06:33;49338.28;;;-146.94;43.29
56737;BME280;42618;51.226;4.910;2022-07-09T12:09:01;49362.19;;;-146.94;43.29
56737;BME280;42618;51.226;4.910;2022-07-09T12:11:29;49346.25;;;-146.94;42.99
56737;BME280;42618;51.226;4.910;2022-07-09T12:13:57;49310.38;;;-146.94;43.01
56737;BME280;42618;51.226;4.910;2022-07-09T12:16:24;49342.28;;;-146.94;42.45
56737;BME280;42618;51.226;4.910;2022-07-09T12:18:51;49332.31;;;-146.94;43.42
56737;BME280;42618;51.226;4.910;2022-07-09T12:21:17;49336.28;;;-146.94;45.23
56737;BME280;42618;51.226;4.910;2022-07-09T12:23:45;49300.41;;;-146.94;45.18
56737;BME280;42618;51.226;4.910;2022-07-09T12:26:12;49386.13;;;-146.94;45.29
56737;BME280;42618;51.226;4.910;2022-07-09T12:28:39;49372.16;;;-146.94;45.97
56737;BME280;42618;51.226;4.910;2022-07-09T12:31:06;49348.25;;;-146.94;45.61
56737;BME280;42618;51.226;4.910;2022-07-09T12:33:33;49332.31;;;-146.94;44.92
56737;BME280;42618;51.226;4.910;2022-07-09T12:35:59;49350.25;;;-146.94;43.02
56737;BME280;42618;51.226;4.910;2022-07-09T12:38:26;49352.22;;;-146.94;42.58
56737;BME280;42618;51.226;4.910;2022-07-09T12:40:53;49344.25;;;-146.94;43.34
56737;BME280;42618;51.226;4.910;2022-07-09T12:43:19;49326.31;;;-146.94;43.08